WAOO/BDJ METAR and TAF weather

Enter ICAO airport designator
Station Type Date Time Source
WAOO METAR 2021/09/25 12:30 UTC NOAA

WAOO 251230Z AUTO 19004KT 9999 NCD 27/25 Q1008


Station Type Date Time Source
WAOO Decoded METAR 2021/09/25 12:30 UTC NOAA

Station name not available
Sep 25, 2021 - 08:30 AM EDT / 2021.09.25 1230 UTC
Wind: from the S (190 degrees) at 5 MPH (4 KT):0
Visibility: greater than 7 mile(s):0
Temperature: 80 F (27 C)
Dew Point: 77 F (25 C)
Relative Humidity: 88%
Pressure (altimeter): 29.77 in. Hg (1008 hPa)
ob: WAOO 251230Z AUTO 19004KT 9999 NCD 27/25 Q1008
cycle: 12

Station Type Date Time Source
WAOO TAF 2021/09/25 12:25 UTC NOAA

TAF WAOO 251100Z 2512/2612 03005KT 9999 SCT018 PROB40
TEMPO 2606/2610 4000 RA

Example: see airport list